createdAt,value
2022-12-16T00:01:36.178Z,43.57
2022-12-16T00:04:03.865Z,44.87
2022-12-16T00:06:33.755Z,43.83
2022-12-16T00:09:01.556Z,44.40
2022-12-16T00:11:32.340Z,44.93
2022-12-16T00:13:59.946Z,43.70
2022-12-16T00:16:27.364Z,41.67
2022-12-16T00:18:54.850Z,41.03
2022-12-16T00:21:23.606Z,37.47
2022-12-16T00:23:50.977Z,36.27
2022-12-16T00:26:19.267Z,32.63
2022-12-16T00:28:46.754Z,34.77
2022-12-16T00:31:14.248Z,32.37
2022-12-16T00:33:41.968Z,29.33
2022-12-16T00:36:10.078Z,27.63
2022-12-16T00:38:38.297Z,27.27
2022-12-16T00:41:05.785Z,26.73
2022-12-16T00:43:33.641Z,25.27
2022-12-16T00:46:01.382Z,25.43
2022-12-16T00:48:28.898Z,26.57
2022-12-16T00:50:56.322Z,26.93
2022-12-16T00:53:24.839Z,26.93
2022-12-16T00:56:01.321Z,23.70
2022-12-16T00:58:28.816Z,21.17
2022-12-16T01:00:56.166Z,22.07
2022-12-16T01:03:24.408Z,21.77
2022-12-16T01:05:51.933Z,20.90
2022-12-16T01:08:19.899Z,20.47
2022-12-16T01:10:55.893Z,19.33
2022-12-16T01:13:25.176Z,20.03
2022-12-16T01:15:53.348Z,19.57
2022-12-16T01:18:21.211Z,19.20
2022-12-16T01:20:48.646Z,18.10
2022-12-16T01:23:16.081Z,17.97
2022-12-16T01:25:43.517Z,16.73
2022-12-16T01:28:10.942Z,15.50
2022-12-16T01:30:38.546Z,16.17
2022-12-16T01:33:05.781Z,15.57
2022-12-16T01:38:20.394Z,14.40
2022-12-16T01:40:47.723Z,13.73
2022-12-16T01:43:17.090Z,13.90
2022-12-16T01:45:44.933Z,12.77
2022-12-16T01:48:26.479Z,13.10
2022-12-16T01:51:00.631Z,11.50
2022-12-16T01:53:28.418Z,11.60
2022-12-16T01:55:57.788Z,10.83
2022-12-16T01:58:30.300Z,10.53
2022-12-16T02:00:58.877Z,10.87
2022-12-16T02:03:30.628Z,11.57
2022-12-16T02:05:59.459Z,10.10
2022-12-16T02:08:26.948Z,10.77
2022-12-16T02:11:08.267Z,11.30
2022-12-16T02:14:02.102Z,10.47
2022-12-16T02:16:43.940Z,11.13
2022-12-16T02:19:49.117Z,10.77
2022-12-16T02:22:28.917Z,9.83
2022-12-16T02:25:38.457Z,9.43
2022-12-16T02:28:05.720Z,9.60
2022-12-16T02:31:09.832Z,9.30
2022-12-16T02:34:10.475Z,8.47
2022-12-16T02:36:53.137Z,7.77
2022-12-16T02:39:25.756Z,8.37
2022-12-16T02:42:01.952Z,7.40
2022-12-16T02:45:16.232Z,8.23
2022-12-16T02:47:44.987Z,7.37
2022-12-16T02:50:33.552Z,7.07
2022-12-16T02:53:03.199Z,7.00
2022-12-16T02:55:45.394Z,7.03
2022-12-16T02:58:19.028Z,7.37
2022-12-16T03:00:52.901Z,7.60
2022-12-16T03:03:50.153Z,7.30
2022-12-16T03:06:21.623Z,7.00
2022-12-16T03:08:54.641Z,7.23
2022-12-16T03:11:23.913Z,7.10
2022-12-16T03:13:54.672Z,7.37
2022-12-16T03:16:26.520Z,11.23
2022-12-16T03:18:59.594Z,8.13
2022-12-16T03:21:32.201Z,8.47
2022-12-16T03:24:03.399Z,7.30
2022-12-16T03:26:53.965Z,6.07
2022-12-16T03:29:57.267Z,5.27
2022-12-16T03:32:37.903Z,5.03
2022-12-16T03:35:23.209Z,5.23
2022-12-16T03:37:55.349Z,4.90
2022-12-16T03:40:25.523Z,5.87
2022-12-16T03:42:53.905Z,6.60
2022-12-16T03:45:27.949Z,7.47
2022-12-16T03:47:58.229Z,7.27
2022-12-16T03:50:36.228Z,5.93
2022-12-16T03:53:05.386Z,4.83
2022-12-16T03:55:33.201Z,4.93
2022-12-16T03:58:00.826Z,4.90
2022-12-16T04:00:28.078Z,5.17
2022-12-16T04:02:55.494Z,6.00
2022-12-16T04:05:23.528Z,6.03
2022-12-16T04:07:51.233Z,5.97
2022-12-16T04:10:38.612Z,5.70
2022-12-16T04:13:24.423Z,6.53
2022-12-16T04:16:10.757Z,6.97
2022-12-16T04:19:18.669Z,5.83
2022-12-16T04:22:05.138Z,6.93
2022-12-16T04:24:33.341Z,6.90
2022-12-16T04:27:19.114Z,7.13
2022-12-16T04:30:04.874Z,6.70
2022-12-16T04:32:52.498Z,6.83
2022-12-16T04:35:39.042Z,6.50
2022-12-16T04:38:24.859Z,6.50
2022-12-16T04:41:10.777Z,6.47
2022-12-16T04:43:56.916Z,7.37
2022-12-16T04:46:43.026Z,5.80
2022-12-16T04:49:29.344Z,7.33
2022-12-16T04:52:15.049Z,6.80
2022-12-16T04:55:00.947Z,7.20
2022-12-16T04:57:46.765Z,10.03
2022-12-16T05:00:33.115Z,13.40
2022-12-16T05:03:19.257Z,8.63
2022-12-16T05:06:05.273Z,11.07
2022-12-16T05:08:51.354Z,7.70
2022-12-16T05:11:37.496Z,5.57
2022-12-16T05:14:24.222Z,6.40
2022-12-16T05:17:09.908Z,5.57
2022-12-16T05:19:55.686Z,4.73
2022-12-16T05:22:41.594Z,6.43
2022-12-16T05:25:28.264Z,5.43
2022-12-16T05:28:14.209Z,5.07
2022-12-16T05:30:59.969Z,4.67
2022-12-16T05:33:46.191Z,4.50
2022-12-16T05:36:32.240Z,4.20
2022-12-16T05:39:18.233Z,4.60
2022-12-16T05:42:04.113Z,4.27
2022-12-16T05:44:49.903Z,8.00
2022-12-16T05:47:36.068Z,5.00
2022-12-16T05:50:22.574Z,4.33
2022-12-16T05:53:09.847Z,4.80
2022-12-16T05:55:55.857Z,4.53
2022-12-16T05:58:42.600Z,4.53
2022-12-16T06:01:29.139Z,4.53
2022-12-16T06:04:17.746Z,4.70
2022-12-16T06:07:04.068Z,5.70
2022-12-16T06:09:54.836Z,5.80
2022-12-16T06:12:42.943Z,5.53
2022-12-16T06:15:29.227Z,5.47
2022-12-16T06:18:15.691Z,5.87
2022-12-16T06:21:02.605Z,5.80
2022-12-16T06:23:48.678Z,6.03
2022-12-16T06:26:34.683Z,5.97
2022-12-16T06:29:20.808Z,6.90
2022-12-16T06:32:06.537Z,6.63
2022-12-16T06:34:52.580Z,6.83
2022-12-16T06:37:38.155Z,7.53
2022-12-16T06:40:24.567Z,7.83
2022-12-16T06:43:10.373Z,7.83
2022-12-16T06:45:56.158Z,7.87
2022-12-16T06:48:41.942Z,9.50
2022-12-16T06:51:27.739Z,10.67
2022-12-16T06:54:13.541Z,13.03
2022-12-16T06:56:59.442Z,11.90
2022-12-16T06:59:45.401Z,12.17
2022-12-16T07:02:31.354Z,11.90
2022-12-16T07:05:17.022Z,12.67
2022-12-16T07:08:07.437Z,12.80
2022-12-16T07:10:55.445Z,11.70
2022-12-16T07:13:44.410Z,12.00
2022-12-16T07:16:30.658Z,11.80
2022-12-16T07:19:16.695Z,12.00
2022-12-16T07:22:02.790Z,12.07
2022-12-16T07:24:48.725Z,11.30
2022-12-16T07:27:34.643Z,11.20
2022-12-16T07:30:21.202Z,11.20
2022-12-16T07:33:09.055Z,11.37
2022-12-16T07:35:55.121Z,11.17
2022-12-16T07:38:41.474Z,11.70
2022-12-16T07:41:27.446Z,9.83
2022-12-16T07:44:13.573Z,10.30
2022-12-16T07:46:59.707Z,10.97
2022-12-16T07:49:45.810Z,11.30
2022-12-16T07:52:32.974Z,13.17
2022-12-16T07:55:18.875Z,9.90
2022-12-16T07:58:09.134Z,11.80
2022-12-16T08:01:00.412Z,15.67
2022-12-16T08:03:48.615Z,17.17
2022-12-16T08:06:40.124Z,12.13
2022-12-16T08:09:26.312Z,14.17
2022-12-16T08:12:12.185Z,12.80
2022-12-16T08:14:58.263Z,12.50
2022-12-16T08:17:44.533Z,17.93
2022-12-16T08:20:30.432Z,13.03
2022-12-16T08:23:16.262Z,14.80
2022-12-16T08:26:02.453Z,13.80
2022-12-16T08:28:48.676Z,13.27
2022-12-16T08:31:34.663Z,15.10
2022-12-16T08:34:20.446Z,14.70
2022-12-16T08:37:06.412Z,14.10
2022-12-16T08:40:10.976Z,14.60
2022-12-16T08:42:58.268Z,13.13
2022-12-16T08:46:01.217Z,12.33
2022-12-16T08:48:47.291Z,11.90
2022-12-16T08:51:33.630Z,11.73
2022-12-16T08:54:19.823Z,12.13
2022-12-16T08:57:05.624Z,13.23
2022-12-16T08:59:51.358Z,13.70
2022-12-16T09:02:37.696Z,15.90
2022-12-16T09:05:24.244Z,14.37
2022-12-16T09:08:09.895Z,12.00
2022-12-16T09:10:55.930Z,11.93
2022-12-16T09:13:41.993Z,14.53
2022-12-16T09:16:28.286Z,14.37
2022-12-16T09:19:14.344Z,12.27
2022-12-16T09:22:00.283Z,12.83
2022-12-16T09:24:46.071Z,12.93
2022-12-16T09:27:32.134Z,13.27
2022-12-16T09:30:18.261Z,13.20
2022-12-16T09:33:04.616Z,12.23
2022-12-16T09:35:50.690Z,10.70
2022-12-16T09:38:38.163Z,11.57
2022-12-16T09:41:46.182Z,11.30
2022-12-16T09:45:01.307Z,10.83
2022-12-16T09:48:06.766Z,12.07
2022-12-16T09:50:56.794Z,11.47
2022-12-16T09:53:43.577Z,12.50
2022-12-16T09:56:39.727Z,11.37
2022-12-16T09:59:31.961Z,10.97
2022-12-16T10:02:19.341Z,11.13
2022-12-16T10:05:10.573Z,10.83
2022-12-16T10:08:17.265Z,11.77
2022-12-16T10:11:30.576Z,11.93
2022-12-16T10:14:20.357Z,11.80
2022-12-16T10:17:17.270Z,11.73
2022-12-16T10:20:09.691Z,11.70
2022-12-16T10:23:36.923Z,13.20
2022-12-16T10:26:45.136Z,11.83
2022-12-16T10:29:39.354Z,11.47
2022-12-16T10:32:38.122Z,11.80
2022-12-16T10:35:39.264Z,11.53
2022-12-16T10:38:37.165Z,11.07
2022-12-16T10:41:23.941Z,10.83
2022-12-16T10:44:11.410Z,13.47
2022-12-16T10:46:57.374Z,14.90
2022-12-16T10:49:43.279Z,11.17
2022-12-16T10:52:31.824Z,9.53
2022-12-16T10:55:33.303Z,12.70
2022-12-16T10:58:44.635Z,9.50
2022-12-16T11:01:45.876Z,7.47
2022-12-16T11:04:56.083Z,8.00
2022-12-16T11:07:46.830Z,7.47
2022-12-16T11:10:54.051Z,7.87
2022-12-16T11:13:51.668Z,8.03
2022-12-16T11:16:48.112Z,8.23
2022-12-16T11:19:46.782Z,8.00
2022-12-16T11:22:39.240Z,7.90
2022-12-16T11:25:32.688Z,8.07
2022-12-16T11:28:31.618Z,9.10
2022-12-16T11:31:21.893Z,8.80
2022-12-16T11:34:09.622Z,9.47
2022-12-16T11:36:58.305Z,9.40
2022-12-16T11:39:47.671Z,10.33
2022-12-16T11:42:41.802Z,9.70
2022-12-16T11:45:34.870Z,9.63
2022-12-16T11:48:49.551Z,10.17
2022-12-16T11:51:36.867Z,10.37
2022-12-16T11:54:42.022Z,9.83
2022-12-16T11:57:51.894Z,9.57
2022-12-16T12:00:38.798Z,10.40
2022-12-16T12:03:38.950Z,10.40
2022-12-16T12:06:40.914Z,9.80
2022-12-16T12:09:46.145Z,10.20
2022-12-16T12:13:04.059Z,10.23
2022-12-16T12:15:54.892Z,10.00
2022-12-16T12:19:00.436Z,10.67
2022-12-16T12:22:02.678Z,10.27
2022-12-16T12:25:15.647Z,10.43
2022-12-16T12:28:13.650Z,10.53
2022-12-16T12:31:26.591Z,11.40
2022-12-16T12:34:39.310Z,11.50
2022-12-16T12:37:32.224Z,10.70
2022-12-16T12:40:32.136Z,12.03
2022-12-16T12:43:20.889Z,12.50
2022-12-16T12:46:34.087Z,11.90
2022-12-16T12:49:37.314Z,11.70
2022-12-16T12:52:35.621Z,12.50
2022-12-16T12:55:30.890Z,12.80
2022-12-16T12:58:19.281Z,13.63
2022-12-16T13:01:10.311Z,13.00
2022-12-16T13:04:04.099Z,12.83
2022-12-16T13:06:53.478Z,12.47
2022-12-16T13:09:50.364Z,13.23
2022-12-16T13:12:43.364Z,12.37
2022-12-16T13:15:56.818Z,12.93
2022-12-16T13:18:51.508Z,14.37
2022-12-16T13:21:56.690Z,15.80
2022-12-16T13:25:03.826Z,15.60
2022-12-16T13:28:08.421Z,14.43
2022-12-16T13:31:11.697Z,14.50
2022-12-16T13:33:58.006Z,14.53
2022-12-16T13:36:53.282Z,14.10
2022-12-16T13:39:43.628Z,14.67
2022-12-16T13:43:06.189Z,16.17
2022-12-16T13:45:58.456Z,15.00
2022-12-16T13:48:57.281Z,15.60
2022-12-16T13:51:58.096Z,15.57
2022-12-16T13:54:58.223Z,16.80
2022-12-16T13:57:47.526Z,15.57
2022-12-16T14:00:40.126Z,16.00
2022-12-16T14:03:41.314Z,16.73
2022-12-16T14:06:36.989Z,17.17
2022-12-16T14:09:23.386Z,16.90
2022-12-16T14:12:22.873Z,17.47
2022-12-16T14:15:19.788Z,16.90
2022-12-16T14:18:19.812Z,17.13
2022-12-16T14:21:19.673Z,17.63
2022-12-16T14:24:12.277Z,17.40
2022-12-16T14:26:59.143Z,16.77
2022-12-16T14:29:51.149Z,16.90
2022-12-16T14:32:54.902Z,18.27
2022-12-16T14:35:43.752Z,18.40
2022-12-16T14:38:47.577Z,22.27
2022-12-16T14:41:37.961Z,22.00
2022-12-16T14:44:43.683Z,20.30
2022-12-16T14:47:38.790Z,19.40
2022-12-16T14:50:46.194Z,19.67
2022-12-16T14:53:43.202Z,19.23
2022-12-16T14:56:35.323Z,19.57
2022-12-16T14:59:30.149Z,19.93
2022-12-16T15:02:17.708Z,19.77
2022-12-16T15:05:04.866Z,22.70
2022-12-16T15:07:55.859Z,23.47
2022-12-16T15:10:45.571Z,22.30
2022-12-16T15:13:38.246Z,22.73
2022-12-16T15:16:25.323Z,22.37
2022-12-16T15:19:18.219Z,20.97
2022-12-16T15:22:04.748Z,22.63
2022-12-16T15:24:56.497Z,22.50
2022-12-16T15:27:45.784Z,24.50
2022-12-16T15:31:00.401Z,23.43
2022-12-16T15:33:49.302Z,21.63
2022-12-16T15:36:58.946Z,23.03
2022-12-16T15:39:55.367Z,23.63
2022-12-16T15:42:44.722Z,22.97
2022-12-16T15:45:47.416Z,22.93
2022-12-16T15:48:36.616Z,24.87
2022-12-16T15:51:22.751Z,23.70
2022-12-16T15:54:21.753Z,26.37
2022-12-16T15:57:08.149Z,26.47
2022-12-16T15:59:55.620Z,29.20
2022-12-16T16:02:46.092Z,26.67
2022-12-16T16:05:38.203Z,28.97
2022-12-16T16:08:24.611Z,28.93
2022-12-16T16:11:10.787Z,29.07
2022-12-16T16:14:01.035Z,27.53
2022-12-16T16:16:51.217Z,28.70
2022-12-16T16:19:42.406Z,28.47
2022-12-16T16:22:34.871Z,28.70
2022-12-16T16:25:20.956Z,29.10
2022-12-16T16:28:07.102Z,28.53
2022-12-16T16:30:53.054Z,29.17
2022-12-16T16:33:38.902Z,29.23
2022-12-16T16:36:34.712Z,28.23
2022-12-16T16:39:20.913Z,29.10
2022-12-16T16:42:06.889Z,29.73
2022-12-16T16:44:52.798Z,28.07
2022-12-16T16:47:39.306Z,28.27
2022-12-16T16:50:25.316Z,27.73
2022-12-16T16:53:11.467Z,27.20
2022-12-16T16:55:57.889Z,27.80
2022-12-16T16:58:46.752Z,24.00
2022-12-16T17:01:34.770Z,24.47
2022-12-16T17:04:21.180Z,23.93
2022-12-16T17:07:07.647Z,24.97
2022-12-16T17:09:53.801Z,24.80
2022-12-16T17:12:42.928Z,27.20
2022-12-16T17:15:41.456Z,27.20
2022-12-16T17:18:27.881Z,27.70
2022-12-16T17:21:13.847Z,28.63
2022-12-16T17:24:00.079Z,27.03
2022-12-16T17:26:46.424Z,27.30
2022-12-16T17:29:42.492Z,28.73
2022-12-16T17:32:29.488Z,28.83
2022-12-16T17:35:15.997Z,29.67
2022-12-16T17:38:03.299Z,30.83
2022-12-16T17:40:49.343Z,31.67
2022-12-16T17:43:35.612Z,33.40
2022-12-16T17:46:24.845Z,31.37
2022-12-16T17:49:12.268Z,33.10
2022-12-16T17:51:58.670Z,32.63
2022-12-16T17:54:44.795Z,31.83
2022-12-16T17:57:31.287Z,32.70
2022-12-16T18:00:17.588Z,36.27
2022-12-16T18:03:03.814Z,34.03
2022-12-16T18:05:49.948Z,34.17
2022-12-16T18:08:42.532Z,37.43
2022-12-16T18:11:28.697Z,37.40
2022-12-16T18:14:17.538Z,34.77
2022-12-16T18:17:03.450Z,33.73
2022-12-16T18:19:50.669Z,33.53
2022-12-16T18:22:37.102Z,38.43
2022-12-16T18:25:24.155Z,32.63
2022-12-16T18:28:10.343Z,34.20
2022-12-16T18:30:56.569Z,40.73
2022-12-16T18:33:42.546Z,34.43
2022-12-16T18:36:28.311Z,35.80
2022-12-16T18:39:14.227Z,34.77
2022-12-16T18:42:05.703Z,35.47
2022-12-16T18:44:57.547Z,35.17
2022-12-16T18:47:46.904Z,34.33
2022-12-16T18:50:37.690Z,35.80
2022-12-16T18:53:24.605Z,34.27
2022-12-16T18:56:22.660Z,32.87
2022-12-16T18:59:08.627Z,34.37
2022-12-16T19:01:54.693Z,33.93
2022-12-16T19:04:40.666Z,33.23
2022-12-16T19:07:26.745Z,35.73
2022-12-16T19:10:12.448Z,34.67
2022-12-16T19:12:58.792Z,34.57
2022-12-16T19:15:44.632Z,32.43
2022-12-16T19:18:30.848Z,31.53
2022-12-16T19:21:16.886Z,34.53
2022-12-16T19:24:04.884Z,33.73
2022-12-16T19:26:50.815Z,33.97
2022-12-16T19:29:37.874Z,34.03
2022-12-16T19:32:24.071Z,33.30
2022-12-16T19:35:10.113Z,34.17
2022-12-16T19:37:56.972Z,34.97
2022-12-16T19:40:42.951Z,34.33
2022-12-16T19:43:28.950Z,33.37
2022-12-16T19:46:15.699Z,33.07
2022-12-16T19:49:01.876Z,31.27
2022-12-16T19:51:47.643Z,32.53
2022-12-16T19:54:33.662Z,35.63
2022-12-16T19:57:19.971Z,33.33
2022-12-16T20:00:05.903Z,34.63
2022-12-16T20:02:58.069Z,33.97
2022-12-16T20:05:44.003Z,32.77
2022-12-16T20:08:34.635Z,32.60
2022-12-16T20:11:25.658Z,31.67
2022-12-16T20:14:13.517Z,32.60
2022-12-16T20:16:59.906Z,32.97
2022-12-16T20:19:46.207Z,32.37
2022-12-16T20:22:32.076Z,31.97
2022-12-16T20:25:17.994Z,32.07
2022-12-16T20:28:04.045Z,32.83
2022-12-16T20:30:50.591Z,30.67
2022-12-16T20:33:37.646Z,30.90
2022-12-16T20:36:24.152Z,30.70
2022-12-16T20:39:10.349Z,31.83
2022-12-16T20:45:03.549Z,31.13
2022-12-16T20:47:50.141Z,30.20
2022-12-16T20:50:36.275Z,29.63
2022-12-16T20:53:22.109Z,31.63
2022-12-16T20:56:08.165Z,31.13
2022-12-16T20:58:56.045Z,31.13
2022-12-16T21:04:48.543Z,32.67
2022-12-16T21:07:34.613Z,31.93
2022-12-16T21:10:20.839Z,32.47
2022-12-16T21:13:07.190Z,32.03
2022-12-16T21:15:53.316Z,33.37
2022-12-16T21:18:43.095Z,32.07
2022-12-16T21:21:39.617Z,31.97
2022-12-16T21:24:25.850Z,31.83
2022-12-16T21:27:12.011Z,32.40
2022-12-16T21:29:57.781Z,33.90
2022-12-16T21:32:44.612Z,33.07
2022-12-16T21:35:30.448Z,32.60
2022-12-16T21:38:16.718Z,31.93
2022-12-16T21:41:08.907Z,33.20
2022-12-16T21:43:55.727Z,34.63
2022-12-16T21:46:42.328Z,32.03
2022-12-16T21:49:29.482Z,32.33
2022-12-16T21:52:15.457Z,34.57
2022-12-16T21:55:01.302Z,34.13
2022-12-16T21:57:47.323Z,32.10
2022-12-16T22:00:33.854Z,32.77
2022-12-16T22:03:19.885Z,33.70
2022-12-16T22:06:06.105Z,33.53
2022-12-16T22:08:52.185Z,33.80
2022-12-16T22:11:38.145Z,32.57
2022-12-16T22:14:24.015Z,32.20
2022-12-16T22:17:10.234Z,32.13
2022-12-16T22:19:56.742Z,33.27
2022-12-16T22:22:42.605Z,31.70
2022-12-16T22:25:29.010Z,32.77
2022-12-16T22:28:15.145Z,32.50
2022-12-16T22:31:01.135Z,32.63
2022-12-16T22:33:47.704Z,32.27
2022-12-16T22:36:33.765Z,30.40
2022-12-16T22:39:19.793Z,32.77
2022-12-16T22:42:05.812Z,32.30
2022-12-16T22:44:51.930Z,30.97
2022-12-16T22:47:37.902Z,29.70
2022-12-16T22:50:24.969Z,28.90
2022-12-16T22:53:10.869Z,28.63
2022-12-16T22:56:01.799Z,28.80
2022-12-16T22:58:48.395Z,29.30
2022-12-16T23:01:34.411Z,28.77
2022-12-16T23:04:20.524Z,27.57
2022-12-16T23:07:06.382Z,27.97
2022-12-16T23:09:53.312Z,26.93
2022-12-16T23:12:40.200Z,28.23
2022-12-16T23:15:29.284Z,29.60
2022-12-16T23:18:15.252Z,28.37
2022-12-16T23:21:09.618Z,28.33
2022-12-16T23:23:56.771Z,26.80
2022-12-16T23:26:43.121Z,27.20
2022-12-16T23:29:28.947Z,28.80
2022-12-16T23:32:15.741Z,27.83
2022-12-16T23:35:01.620Z,27.60
2022-12-16T23:37:47.664Z,26.83
2022-12-16T23:40:34.893Z,27.30
2022-12-16T23:43:20.994Z,26.90
2022-12-16T23:46:07.046Z,27.13
2022-12-16T23:48:53.247Z,27.43
2022-12-16T23:51:39.666Z,28.27
2022-12-16T23:54:25.743Z,26.60
2022-12-16T23:57:11.812Z,28.07
2022-12-16T23:59:57.515Z,29.40
